createdAt,value
2018-03-26T00:00:48.637Z,79.12
2018-03-26T00:01:48.576Z,79.31
2018-03-26T00:02:48.556Z,78.64
2018-03-26T00:03:48.913Z,79.12
2018-03-26T00:04:48.698Z,79.41
2018-03-26T00:05:48.576Z,79.50
2018-03-26T00:06:48.483Z,79.03
2018-03-26T00:07:48.460Z,79.50
2018-03-26T00:08:48.433Z,79.12
2018-03-26T00:09:48.822Z,78.93
2018-03-26T00:10:48.410Z,79.03
2018-03-26T00:11:48.378Z,78.74
2018-03-26T00:12:48.427Z,79.22
2018-03-26T00:13:48.348Z,79.69
2018-03-26T00:14:48.432Z,79.12
2018-03-26T00:15:48.304Z,79.88
2018-03-26T00:16:48.607Z,79.31
2018-03-26T00:17:48.282Z,79.41
2018-03-26T00:18:48.251Z,80.16
2018-03-26T00:19:48.240Z,79.97
2018-03-26T00:20:48.266Z,80.45
2018-03-26T00:21:48.221Z,79.88
2018-03-26T00:22:48.189Z,79.97
2018-03-26T00:23:48.460Z,79.97
2018-03-26T00:24:48.150Z,80.35
2018-03-26T00:25:48.476Z,80.26
2018-03-26T00:26:48.207Z,80.26
2018-03-26T00:27:48.090Z,80.26
2018-03-26T00:28:48.079Z,80.07
2018-03-26T00:29:48.146Z,80.16
2018-03-26T00:30:48.331Z,79.97
2018-03-26T00:31:48.070Z,80.35
2018-03-26T00:32:47.995Z,80.26
2018-03-26T00:33:47.967Z,80.35
2018-03-26T00:34:47.974Z,80.35
2018-03-26T00:35:47.960Z,80.93
2018-03-26T00:36:47.973Z,81.12
2018-03-26T00:37:48.197Z,80.83
2018-03-26T00:38:47.996Z,80.64
2018-03-26T00:39:47.872Z,80.83
2018-03-26T00:40:47.838Z,80.74
2018-03-26T00:41:47.822Z,81.21
2018-03-26T00:42:47.804Z,81.30
2018-03-26T00:43:47.790Z,81.30
2018-03-26T00:44:48.123Z,81.59
2018-03-26T00:45:47.748Z,81.30
2018-03-26T00:46:47.729Z,81.49
2018-03-26T00:47:47.865Z,81.87
2018-03-26T00:48:47.747Z,82.16
2018-03-26T00:49:47.683Z,82.07
2018-03-26T00:50:47.711Z,81.78
2018-03-26T00:51:48.041Z,81.87
2018-03-26T00:52:47.626Z,81.97
2018-03-26T00:53:47.594Z,82.26
2018-03-26T00:54:47.644Z,82.35
2018-03-26T00:55:47.560Z,82.64
2018-03-26T00:56:47.629Z,82.82
2018-03-26T00:57:48.003Z,83.20
2018-03-26T00:58:47.729Z,83.20
2018-03-26T00:59:47.482Z,83.39
2018-03-26T01:00:47.480Z,83.39
2018-03-26T01:01:47.443Z,83.59
2018-03-26T01:02:47.439Z,83.20
2018-03-26T01:03:47.775Z,83.68
2018-03-26T01:04:47.396Z,84.06
2018-03-26T01:05:47.367Z,83.87
2018-03-26T01:06:47.350Z,84.06
2018-03-26T01:07:48.053Z,83.68
2018-03-26T01:08:47.319Z,84.63
2018-03-26T01:09:47.711Z,85.01
2018-03-26T01:10:47.299Z,84.91
2018-03-26T01:11:47.267Z,84.82
2018-03-26T01:12:47.239Z,85.11
2018-03-26T01:14:47.321Z,85.20
2018-03-26T01:15:47.181Z,85.01
2018-03-26T01:16:47.470Z,84.82
2018-03-26T01:17:47.155Z,85.86
2018-03-26T01:18:47.125Z,85.77
2018-03-26T01:19:47.213Z,85.58
2018-03-26T01:20:47.093Z,85.49
2018-03-26T01:21:47.070Z,85.77
2018-03-26T01:22:47.464Z,85.49
2018-03-26T01:23:47.145Z,85.58
2018-03-26T01:24:47.118Z,85.58
2018-03-26T01:25:47.053Z,86.05
2018-03-26T01:26:46.981Z,85.77
2018-03-26T01:27:46.965Z,85.58
2018-03-26T01:28:47.336Z,85.68
2018-03-26T01:29:46.921Z,85.68
2018-03-26T01:30:46.896Z,85.77
2018-03-26T01:31:46.940Z,85.77
2018-03-26T01:32:46.870Z,85.68
2018-03-26T01:33:46.939Z,85.96
2018-03-26T01:34:47.274Z,85.49
2018-03-26T01:35:46.803Z,85.77
2018-03-26T01:36:46.792Z,86.05
2018-03-26T01:37:46.814Z,85.86
2018-03-26T01:38:46.746Z,86.34
2018-03-26T01:39:46.827Z,85.96
2018-03-26T01:40:46.706Z,86.24
2018-03-26T01:41:46.983Z,85.77
2018-03-26T01:42:46.731Z,86.15
2018-03-26T01:43:46.650Z,86.15
2018-03-26T01:44:46.625Z,86.15
2018-03-26T01:45:46.606Z,86.34
2018-03-26T01:46:46.594Z,86.43
2018-03-26T01:47:46.679Z,86.24
2018-03-26T01:48:46.861Z,86.43
2018-03-26T01:49:46.600Z,86.24
2018-03-26T01:50:46.521Z,86.34
2018-03-26T01:51:46.517Z,86.72
2018-03-26T01:52:46.564Z,86.30
2018-03-26T01:53:46.511Z,86.53
2018-03-26T01:55:46.775Z,87.10
2018-03-26T01:56:46.517Z,86.77
2018-03-26T01:57:46.385Z,87.34
2018-03-26T01:58:46.431Z,86.72
2018-03-26T02:00:46.427Z,87.34
2018-03-26T02:01:46.323Z,87.29
2018-03-26T02:02:46.618Z,87.24
2018-03-26T02:03:46.319Z,87.05
2018-03-26T02:04:46.320Z,87.76
2018-03-26T02:05:46.348Z,87.62
2018-03-26T02:07:46.343Z,87.53
2018-03-26T02:08:46.182Z,87.57
2018-03-26T02:09:46.468Z,87.62
2018-03-26T02:10:46.144Z,87.67
2018-03-26T02:11:46.222Z,87.82
2018-03-26T02:12:46.096Z,87.82
2018-03-26T02:13:46.277Z,87.91
2018-03-26T02:14:46.069Z,87.86
2018-03-26T02:15:46.058Z,87.86
2018-03-26T02:16:46.380Z,88.20
2018-03-26T02:17:46.037Z,88.10
2018-03-26T02:18:45.980Z,88.01
2018-03-26T02:19:45.977Z,88.29
2018-03-26T02:20:45.953Z,88.29
2018-03-26T02:21:46.029Z,87.72
2018-03-26T02:23:46.206Z,88.20
2018-03-26T02:24:45.881Z,88.29
2018-03-26T02:25:45.866Z,88.01
2018-03-26T02:26:45.832Z,88.29
2018-03-26T02:27:45.961Z,88.20
2018-03-26T02:28:45.800Z,88.39
2018-03-26T02:29:46.077Z,88.48
2018-03-26T02:30:45.758Z,88.48
2018-03-26T02:31:45.832Z,88.57
2018-03-26T02:32:45.721Z,88.20
2018-03-26T02:33:45.712Z,88.48
2018-03-26T02:34:45.687Z,88.67
2018-03-26T02:35:45.963Z,88.86
2018-03-26T02:36:45.749Z,88.67
2018-03-26T02:37:45.632Z,88.76
2018-03-26T02:38:45.600Z,88.76
2018-03-26T02:39:45.592Z,88.76
2018-03-26T02:40:45.576Z,89.19
2018-03-26T02:41:45.907Z,89.14
2018-03-26T02:42:45.531Z,88.95
2018-03-26T02:43:45.517Z,88.95
2018-03-26T02:44:45.493Z,89.24
2018-03-26T02:45:45.474Z,89.24
2018-03-26T02:46:46.050Z,89.14
2018-03-26T02:47:45.742Z,89.33
2018-03-26T02:48:45.420Z,88.95
2018-03-26T02:49:45.401Z,88.95
2018-03-26T02:50:45.379Z,89.72
2018-03-26T02:51:45.367Z,89.72
2018-03-26T02:52:45.386Z,89.43
2018-03-26T02:53:45.620Z,89.90
2018-03-26T02:54:45.312Z,90.00
2018-03-26T02:55:45.286Z,90.57
2018-03-26T02:56:45.359Z,90.09
2018-03-26T02:57:45.306Z,90.28
2018-03-26T02:58:45.230Z,89.90
2018-03-26T02:59:45.513Z,90.19
2018-03-26T03:00:45.238Z,89.90
2018-03-26T03:02:45.151Z,90.00
2018-03-26T03:03:45.205Z,90.19
2018-03-26T03:04:45.112Z,90.38
2018-03-26T03:05:45.171Z,90.66
2018-03-26T03:06:45.417Z,90.47
2018-03-26T03:07:45.040Z,90.76
2018-03-26T03:08:45.034Z,90.57
2018-03-26T03:09:45.005Z,91.14
2018-03-26T03:10:45.150Z,91.24
2018-03-26T03:11:45.019Z,91.24
2018-03-26T03:12:44.947Z,90.66
2018-03-26T03:13:45.237Z,91.04
2018-03-26T03:14:45.133Z,91.24
2018-03-26T03:15:44.898Z,91.24
2018-03-26T03:16:44.897Z,91.42
2018-03-26T03:17:44.962Z,91.33
2018-03-26T03:18:44.907Z,91.14
2018-03-26T03:19:44.824Z,91.52
2018-03-26T03:20:45.092Z,91.99
2018-03-26T03:21:44.909Z,91.80
2018-03-26T03:22:44.856Z,91.99
2018-03-26T03:23:44.733Z,91.71
2018-03-26T03:24:44.766Z,91.61
2018-03-26T03:25:44.696Z,91.71
2018-03-26T03:26:44.683Z,91.99
2018-03-26T03:27:45.009Z,92.56
2018-03-26T03:28:44.749Z,91.99
2018-03-26T03:29:44.651Z,92.47
2018-03-26T03:30:44.691Z,92.09
2018-03-26T03:31:44.602Z,92.09
2018-03-26T03:32:44.859Z,92.56
2018-03-26T03:33:44.904Z,92.66
2018-03-26T03:34:44.831Z,92.85
2018-03-26T03:35:44.506Z,92.94
2018-03-26T03:36:44.537Z,92.85
2018-03-26T03:37:44.456Z,93.51
2018-03-26T03:38:44.444Z,93.32
2018-03-26T03:39:44.433Z,93.41
2018-03-26T03:40:44.404Z,93.32
2018-03-26T03:41:44.739Z,93.13
2018-03-26T03:42:44.368Z,93.60
2018-03-26T03:43:44.440Z,93.80
2018-03-26T03:44:44.327Z,93.60
2018-03-26T03:45:44.312Z,93.70
2018-03-26T03:46:44.300Z,93.60
2018-03-26T03:47:44.369Z,94.08
2018-03-26T03:48:44.549Z,93.99
2018-03-26T03:49:44.227Z,93.41
2018-03-26T03:50:44.358Z,93.51
2018-03-26T03:51:44.267Z,94.37
2018-03-26T03:52:44.170Z,94.27
2018-03-26T03:53:44.156Z,93.99
2018-03-26T03:54:44.437Z,93.89
2018-03-26T03:55:44.163Z,93.89
2018-03-26T03:56:44.190Z,94.08
2018-03-26T03:57:44.069Z,94.46
2018-03-26T03:58:44.056Z,94.74
2018-03-26T03:59:44.036Z,94.46
2018-03-26T04:00:44.322Z,94.74
2018-03-26T04:01:44.097Z,94.74
2018-03-26T04:02:43.992Z,95.03
2018-03-26T04:03:43.963Z,95.22
2018-03-26T04:04:44.340Z,95.41
2018-03-26T04:05:43.964Z,95.22
2018-03-26T04:06:44.300Z,95.12
2018-03-26T04:07:43.874Z,94.84
2018-03-26T04:08:43.863Z,95.22
2018-03-26T04:09:43.839Z,94.84
2018-03-26T04:10:43.913Z,95.12
2018-03-26T04:11:43.816Z,95.60
2018-03-26T04:12:44.124Z,95.51
2018-03-26T04:13:43.803Z,95.51
2018-03-26T04:14:43.737Z,95.79
2018-03-26T04:15:43.719Z,95.51
2018-03-26T04:16:43.704Z,95.79
2018-03-26T04:18:43.964Z,95.70
2018-03-26T04:19:43.650Z,95.70
2018-03-26T04:20:43.626Z,96.36
2018-03-26T04:21:43.606Z,95.98
2018-03-26T04:22:43.691Z,96.69
2018-03-26T04:23:43.614Z,96.93
2018-03-26T04:24:43.839Z,96.55
2018-03-26T04:25:43.730Z,96.41
2018-03-26T04:26:43.498Z,96.50
2018-03-26T04:27:43.489Z,96.69
2018-03-26T04:28:43.560Z,96.45
2018-03-26T04:29:43.449Z,96.64
2018-03-26T04:30:43.531Z,96.83
2018-03-26T04:31:43.708Z,96.78
2018-03-26T04:32:43.488Z,97.60
2018-03-26T04:33:43.374Z,97.02
2018-03-26T04:34:43.347Z,97.60
2018-03-26T04:35:43.377Z,97.17
2018-03-26T04:36:43.315Z,97.12
2018-03-26T04:37:43.585Z,97.07
2018-03-26T04:38:43.267Z,96.93
2018-03-26T04:39:43.244Z,97.02
2018-03-26T04:40:43.289Z,97.45
2018-03-26T04:42:43.198Z,97.36
2018-03-26T04:43:43.172Z,97.17
2018-03-26T04:44:43.452Z,97.74
2018-03-26T04:45:43.143Z,97.60
2018-03-26T04:46:43.248Z,97.45
2018-03-26T04:47:43.099Z,97.64
2018-03-26T04:48:43.072Z,97.55
2018-03-26T04:49:43.052Z,97.92
2018-03-26T04:50:43.034Z,98.16
2018-03-26T04:51:43.308Z,98.21
2018-03-26T04:52:43.086Z,97.88
2018-03-26T04:53:42.972Z,98.11
2018-03-26T04:54:42.963Z,97.92
2018-03-26T04:55:42.947Z,98.21
2018-03-26T04:56:42.917Z,98.21
2018-03-26T04:57:43.197Z,98.02
2018-03-26T04:58:42.926Z,97.92
2018-03-26T04:59:42.950Z,97.92
2018-03-26T05:00:42.846Z,98.68
2018-03-26T05:01:42.820Z,98.11
2018-03-26T05:02:42.799Z,98.11
2018-03-26T05:03:42.982Z,98.78
2018-03-26T05:04:43.658Z,98.40
2018-03-26T05:05:42.737Z,97.92
2018-03-26T05:06:42.727Z,98.68
2018-03-26T05:07:42.693Z,98.78
2018-03-26T05:08:42.677Z,98.40
2018-03-26T05:09:42.763Z,98.59
2018-03-26T05:10:42.743Z,98.49
2018-03-26T05:11:42.985Z,98.40
2018-03-26T05:12:42.593Z,98.40
2018-03-26T05:13:42.581Z,98.49
2018-03-26T05:14:42.552Z,99.06
2018-03-26T05:15:42.536Z,98.49
2018-03-26T05:16:42.614Z,98.49
2018-03-26T05:17:42.801Z,98.30
2018-03-26T05:18:42.471Z,98.49
2018-03-26T05:19:42.459Z,98.68
2018-03-26T05:20:42.439Z,98.68
2018-03-26T05:21:42.469Z,98.11
2018-03-26T05:22:42.444Z,98.11
2018-03-26T05:23:42.685Z,98.59
2018-03-26T05:24:42.369Z,98.59
2018-03-26T05:25:42.343Z,98.30
2018-03-26T05:26:42.331Z,98.68
2018-03-26T05:27:42.354Z,98.59
2018-03-26T05:28:42.295Z,98.59
2018-03-26T05:29:42.574Z,98.59
2018-03-26T05:30:42.247Z,98.68
2018-03-26T05:31:42.219Z,98.87
2018-03-26T05:32:42.320Z,98.59
2018-03-26T05:33:42.182Z,98.59
2018-03-26T05:34:42.160Z,98.68
2018-03-26T05:35:42.544Z,98.59
2018-03-26T05:36:42.134Z,99.06
2018-03-26T05:37:42.110Z,98.59
2018-03-26T05:38:42.079Z,98.40
2018-03-26T05:39:42.051Z,98.40
2018-03-26T05:40:42.032Z,98.49
2018-03-26T05:41:42.381Z,98.40
2018-03-26T05:42:41.997Z,98.11
2018-03-26T05:43:42.003Z,98.49
2018-03-26T05:44:41.962Z,98.49
2018-03-26T05:45:41.938Z,98.68
2018-03-26T05:46:41.928Z,98.49
2018-03-26T05:47:41.955Z,98.59
2018-03-26T05:48:41.881Z,98.49
2018-03-26T05:49:41.861Z,98.40
2018-03-26T05:50:41.887Z,98.87
2018-03-26T05:51:41.918Z,98.11
2018-03-26T05:52:41.807Z,98.30
2018-03-26T05:53:42.137Z,98.87
2018-03-26T05:54:41.807Z,98.87
2018-03-26T05:55:41.897Z,98.97
2018-03-26T05:56:41.804Z,98.59
2018-03-26T05:57:41.910Z,98.87
2018-03-26T05:58:41.971Z,98.40
2018-03-26T05:59:42.017Z,98.40
2018-03-26T06:00:42.333Z,98.68
2018-03-26T06:01:41.932Z,97.92
2018-03-26T06:02:41.816Z,98.30
2018-03-26T06:03:41.835Z,98.59
2018-03-26T06:04:41.852Z,98.68
2018-03-26T06:05:41.704Z,98.02
2018-03-26T06:06:42.026Z,97.64
2018-03-26T06:07:41.505Z,97.92
2018-03-26T06:08:41.534Z,97.74
2018-03-26T06:10:41.442Z,97.36
2018-03-26T06:11:41.419Z,97.92
2018-03-26T06:12:41.429Z,97.92
2018-03-26T06:13:41.686Z,97.74
2018-03-26T06:14:41.467Z,97.92
2018-03-26T06:15:41.396Z,97.36
2018-03-26T06:16:41.370Z,97.64
2018-03-26T06:17:41.302Z,96.97
2018-03-26T06:18:41.297Z,97.02
2018-03-26T06:19:41.264Z,97.36
2018-03-26T06:20:41.545Z,97.26
2018-03-26T06:21:41.384Z,96.88
2018-03-26T06:22:41.291Z,96.69
2018-03-26T06:23:41.186Z,96.69
2018-03-26T06:24:41.247Z,96.50
2018-03-26T06:25:41.187Z,96.92
2018-03-26T06:26:41.428Z,97.02
2018-03-26T06:27:41.178Z,97.02
2018-03-26T06:28:41.162Z,97.17
2018-03-26T06:29:41.145Z,97.55
2018-03-26T06:30:41.251Z,97.07
2018-03-26T06:31:41.082Z,96.69
2018-03-26T06:32:41.312Z,96.22
2018-03-26T06:33:40.991Z,96.31
2018-03-26T06:34:41.314Z,96.41
2018-03-26T06:35:40.946Z,96.78
2018-03-26T06:36:41.972Z,96.78
2018-03-26T06:37:40.893Z,96.50
2018-03-26T06:38:40.896Z,96.22
2018-03-26T06:39:41.169Z,96.03
2018-03-26T06:40:40.851Z,96.03
2018-03-26T06:41:40.822Z,95.65
2018-03-26T06:42:40.952Z,95.93
2018-03-26T06:43:40.778Z,95.93
2018-03-26T06:44:40.771Z,95.74
2018-03-26T06:45:41.183Z,95.65
2018-03-26T06:46:41.281Z,95.36
2018-03-26T06:47:40.811Z,95.74
2018-03-26T06:48:40.793Z,95.93
2018-03-26T06:49:40.661Z,95.55
2018-03-26T06:50:41.011Z,95.65
2018-03-26T06:51:40.634Z,95.17
2018-03-26T06:52:40.756Z,94.89
2018-03-26T06:53:40.585Z,95.36
2018-03-26T06:54:40.564Z,95.07
2018-03-26T06:55:40.547Z,95.55
2018-03-26T06:56:40.832Z,95.07
2018-03-26T06:57:40.550Z,94.79
2018-03-26T06:58:40.491Z,94.79
2018-03-26T06:59:40.471Z,94.32
2018-03-26T07:00:40.561Z,94.60
2018-03-26T07:01:40.429Z,94.32
2018-03-26T07:02:40.455Z,94.13
2018-03-26T07:03:40.735Z,94.23
2018-03-26T07:04:40.367Z,94.13
2018-03-26T07:05:40.410Z,93.27
2018-03-26T07:06:40.346Z,93.56
2018-03-26T07:07:40.341Z,93.56
2018-03-26T07:08:40.309Z,93.46
2018-03-26T07:09:40.681Z,93.37
2018-03-26T07:10:40.276Z,93.37
2018-03-26T07:11:40.295Z,92.33
2018-03-26T07:12:40.277Z,91.80
2018-03-26T07:13:40.209Z,91.04
2018-03-26T07:14:40.186Z,90.57
2018-03-26T07:15:40.212Z,90.00
2018-03-26T07:16:40.149Z,89.53
2018-03-26T07:17:40.170Z,89.81
2018-03-26T07:18:40.104Z,89.33
2018-03-26T07:19:40.093Z,89.00
2018-03-26T07:20:40.375Z,88.90
2018-03-26T07:21:40.152Z,87.86
2018-03-26T07:22:40.028Z,87.38
2018-03-26T07:23:40.022Z,86.29
2018-03-26T07:24:40.007Z,85.72
2018-03-26T07:25:39.973Z,85.15
2018-03-26T07:26:40.607Z,84.77
2018-03-26T07:27:39.935Z,85.15
2018-03-26T07:28:39.926Z,83.72
2018-03-26T07:29:39.900Z,84.05
2018-03-26T07:30:39.879Z,83.86
2018-03-26T07:31:39.863Z,82.76
2018-03-26T07:32:39.956Z,80.66
2018-03-26T07:33:40.231Z,78.99
2018-03-26T07:34:39.834Z,78.80
2018-03-26T07:35:39.860Z,79.24
2018-03-26T07:36:39.793Z,80.34
2018-03-26T07:37:39.765Z,82.49
2018-03-26T07:38:39.758Z,84.77
2018-03-26T07:39:40.025Z,85.11
2018-03-26T07:40:39.743Z,86.34
2018-03-26T07:41:39.765Z,86.82
2018-03-26T07:42:39.674Z,87.29
2018-03-26T07:43:39.667Z,87.67
2018-03-26T07:44:39.643Z,87.67
2018-03-26T07:45:39.933Z,87.76
2018-03-26T07:46:39.612Z,87.48
2018-03-26T07:47:39.762Z,87.01
2018-03-26T07:48:39.683Z,86.34
2018-03-26T07:49:39.567Z,85.01
2018-03-26T07:50:39.539Z,84.63
2018-03-26T07:51:39.822Z,85.24
2018-03-26T07:52:39.502Z,85.34
2018-03-26T07:53:39.584Z,85.15
2018-03-26T07:54:39.467Z,84.58
2018-03-26T07:55:39.457Z,84.29
2018-03-26T07:56:39.448Z,83.72
2018-03-26T07:57:39.725Z,83.72
2018-03-26T07:58:39.454Z,83.82
2018-03-26T07:59:39.393Z,82.87
2018-03-26T08:00:39.421Z,83.15
2018-03-26T08:01:39.436Z,82.49
2018-03-26T08:02:39.343Z,82.87
2018-03-26T08:03:39.623Z,81.58
2018-03-26T08:04:39.407Z,80.72
2018-03-26T08:05:39.346Z,81.06
2018-03-26T08:06:39.295Z,80.91
2018-03-26T08:07:39.364Z,79.72
2018-03-26T08:08:39.241Z,77.81
2018-03-26T08:09:39.528Z,76.96
2018-03-26T08:10:39.429Z,77.62
2018-03-26T08:11:39.195Z,77.81
2018-03-26T08:12:39.231Z,77.15
2018-03-26T08:13:39.170Z,78.19
2018-03-26T08:14:39.157Z,78.29
2018-03-26T08:15:39.433Z,77.91
2018-03-26T08:16:39.174Z,77.37
2018-03-26T08:17:39.161Z,75.47
2018-03-26T08:18:39.071Z,73.95
2018-03-26T08:19:39.086Z,73.22
2018-03-26T08:20:39.039Z,72.85
2018-03-26T08:21:39.372Z,72.12
2018-03-26T08:22:39.018Z,70.72
2018-03-26T08:23:38.989Z,67.99
2018-03-26T08:24:39.016Z,66.41
2018-03-26T08:25:39.000Z,65.07
2018-03-26T08:26:38.993Z,66.72
2018-03-26T08:27:39.241Z,69.26
2018-03-26T08:28:38.904Z,69.39
2018-03-26T08:29:38.892Z,67.90
2018-03-26T08:30:39.008Z,66.56
2018-03-26T08:31:38.956Z,65.70
2018-03-26T08:32:38.902Z,66.82
2018-03-26T08:33:39.200Z,68.53
2018-03-26T08:34:38.827Z,67.90
2018-03-26T08:35:38.812Z,66.41
2018-03-26T08:36:38.862Z,66.56
2018-03-26T08:37:38.783Z,66.41
2018-03-26T08:38:38.918Z,67.68
2018-03-26T08:39:38.759Z,66.98
2018-03-26T08:40:38.755Z,63.54
2018-03-26T08:41:39.182Z,62.46
2018-03-26T08:42:38.710Z,62.97
2018-03-26T08:43:38.704Z,64.65
2018-03-26T08:44:38.996Z,67.64
2018-03-26T08:45:38.673Z,71.57
2018-03-26T08:46:38.782Z,73.76
2018-03-26T08:47:38.765Z,75.09
2018-03-26T08:48:38.691Z,75.62
2018-03-26T08:49:38.622Z,76.76
2018-03-26T08:50:38.908Z,75.09
2018-03-26T08:51:38.697Z,74.62
2018-03-26T08:52:38.683Z,74.52
2018-03-26T08:53:38.722Z,73.32
2018-03-26T08:54:38.564Z,70.88
2018-03-26T08:55:38.548Z,68.18
2018-03-26T08:56:38.688Z,64.78
2018-03-26T08:57:41.863Z,63.10
2018-03-26T08:58:38.591Z,61.72
2018-03-26T08:59:38.489Z,60.33
2018-03-26T09:00:38.481Z,63.04
2018-03-26T09:01:38.494Z,66.63
2018-03-26T09:02:38.462Z,67.86
2018-03-26T09:03:41.144Z,66.63
2018-03-26T09:04:38.434Z,63.16
2018-03-26T09:05:38.480Z,60.39
2018-03-26T09:06:38.402Z,58.41
2018-03-26T09:07:38.398Z,59.28
2018-03-26T09:08:38.384Z,61.44
2018-03-26T09:09:38.722Z,63.32
2018-03-26T09:10:38.429Z,65.04
2018-03-26T09:11:38.436Z,65.80
2018-03-26T09:12:39.753Z,64.85
2018-03-26T09:13:38.427Z,65.23
2018-03-26T09:14:38.308Z,64.88
2018-03-26T09:15:38.621Z,62.71
2018-03-26T09:16:38.294Z,61.44
2018-03-26T09:17:38.590Z,62.62
2018-03-26T09:18:38.353Z,64.47
2018-03-26T09:19:38.295Z,64.56
2018-03-26T09:20:38.297Z,64.47
2018-03-26T09:21:38.525Z,63.80
2018-03-26T09:22:38.219Z,63.92
2018-03-26T09:23:38.209Z,61.47
2018-03-26T09:24:38.201Z,60.81
2018-03-26T09:25:38.242Z,59.95
2018-03-26T09:26:38.177Z,61.57
2018-03-26T09:27:38.514Z,63.29
2018-03-26T09:28:38.158Z,67.80
2018-03-26T09:29:38.148Z,70.52
2018-03-26T09:30:38.134Z,73.25
2018-03-26T09:31:38.124Z,74.39
2018-03-26T09:32:38.117Z,74.58
2018-03-26T09:33:38.441Z,72.41
2018-03-26T09:34:38.463Z,68.18
2018-03-26T09:35:38.068Z,65.99
2018-03-26T09:36:38.082Z,64.88
2018-03-26T09:37:38.065Z,62.71
2018-03-26T09:38:38.097Z,61.13
2018-03-26T09:39:38.348Z,59.56
2018-03-26T09:40:38.068Z,56.69
2018-03-26T09:41:38.017Z,57.07
2018-03-26T09:42:37.997Z,57.78
2018-03-26T09:43:37.985Z,58.22
2018-03-26T09:44:37.987Z,56.31
2018-03-26T09:45:38.425Z,59.06
2018-03-26T09:46:37.979Z,63.57
2018-03-26T09:47:37.945Z,67.00
2018-03-26T09:48:37.933Z,66.09
2018-03-26T09:49:38.021Z,64.81
2018-03-26T09:50:37.915Z,61.95
2018-03-26T09:51:38.308Z,60.74
2018-03-26T09:52:38.215Z,58.22
2018-03-26T09:53:37.994Z,57.55
2018-03-26T09:54:37.873Z,56.95
2018-03-26T09:55:37.898Z,58.93
2018-03-26T09:56:37.847Z,59.63
2018-03-26T09:57:37.947Z,58.29
2018-03-26T09:58:37.840Z,58.26
2018-03-26T09:59:37.904Z,57.81
2018-03-26T10:00:37.929Z,55.64
2018-03-26T10:01:37.863Z,59.12
2018-03-26T10:02:37.798Z,63.39
2018-03-26T10:03:38.085Z,66.75
2018-03-26T10:04:37.788Z,66.78
2018-03-26T10:05:37.871Z,66.88
2018-03-26T10:06:37.757Z,67.74
2018-03-26T10:07:37.907Z,67.96
2018-03-26T10:09:37.831Z,65.00
2018-03-26T10:10:38.937Z,66.05
2018-03-26T10:11:37.720Z,65.86
2018-03-26T10:12:37.785Z,66.24
2018-03-26T10:13:37.695Z,64.81
2018-03-26T10:14:37.683Z,63.99
2018-03-26T10:15:37.727Z,62.68
2018-03-26T10:16:37.967Z,62.65
2018-03-26T10:17:37.655Z,61.57
2018-03-26T10:18:37.662Z,60.36
2018-03-26T10:19:37.645Z,59.05
2018-03-26T10:20:37.621Z,55.79
2018-03-26T10:21:37.663Z,55.42
2018-03-26T10:22:38.324Z,58.23
2018-03-26T10:23:37.913Z,58.93
2018-03-26T10:24:37.954Z,59.73
2018-03-26T10:25:38.486Z,61.54
2018-03-26T10:26:37.854Z,61.47
2018-03-26T10:27:37.605Z,61.07
2018-03-26T10:28:37.864Z,61.25
2018-03-26T10:29:37.545Z,61.38
2018-03-26T10:30:37.536Z,59.91
2018-03-26T10:31:37.530Z,57.93
2018-03-26T10:32:37.565Z,55.10
2018-03-26T10:33:37.520Z,54.80
2018-03-26T10:34:37.798Z,55.99
2018-03-26T10:35:37.505Z,56.24
2018-03-26T10:36:37.611Z,54.16
2018-03-26T10:37:37.522Z,53.23
2018-03-26T10:38:37.469Z,53.92
2018-03-26T10:39:37.606Z,56.32
2018-03-26T10:40:37.772Z,61.96
2018-03-26T10:41:37.541Z,66.31
2018-03-26T10:42:37.541Z,67.03
2018-03-26T10:43:37.430Z,67.55
2018-03-26T10:44:37.535Z,66.82
2018-03-26T10:45:37.412Z,67.35
2018-03-26T10:46:37.706Z,68.75
2018-03-26T10:47:37.512Z,69.04
2018-03-26T10:48:37.389Z,68.94
2018-03-26T10:49:37.495Z,68.75
2018-03-26T10:50:38.032Z,68.21
2018-03-26T10:51:37.449Z,68.56
2018-03-26T10:52:37.864Z,68.18
2018-03-26T10:53:37.628Z,69.32
2018-03-26T10:54:37.641Z,69.07
2018-03-26T10:55:37.999Z,66.31
2018-03-26T10:56:37.324Z,64.56
2018-03-26T10:57:37.298Z,66.05
2018-03-26T10:58:37.619Z,65.89
2018-03-26T10:59:37.310Z,63.83
2018-03-26T11:00:37.793Z,60.93
2018-03-26T11:01:37.250Z,59.50
2018-03-26T11:02:37.246Z,58.45
2018-03-26T11:03:37.241Z,59.99
2018-03-26T11:04:37.727Z,63.86
2018-03-26T11:05:37.285Z,63.89
2018-03-26T11:06:37.411Z,63.60
2018-03-26T11:07:37.328Z,64.85
2018-03-26T11:08:37.304Z,64.15
2018-03-26T11:09:37.188Z,62.55
2018-03-26T11:10:37.186Z,59.24
2018-03-26T11:11:37.169Z,60.39
2018-03-26T11:12:37.421Z,63.70
2018-03-26T11:13:37.147Z,64.69
2018-03-26T11:14:37.141Z,63.89
2018-03-26T11:15:37.139Z,63.26
2018-03-26T11:16:37.456Z,64.53
2018-03-26T11:17:37.123Z,65.00
2018-03-26T11:18:37.158Z,65.86
2018-03-26T11:19:37.107Z,66.59
2018-03-26T11:20:37.089Z,67.89
2018-03-26T11:21:37.629Z,68.53
2018-03-26T11:22:37.082Z,67.48
2018-03-26T11:23:37.372Z,66.38
2018-03-26T11:24:37.055Z,63.83
2018-03-26T11:25:37.057Z,62.21
2018-03-26T11:26:37.044Z,62.49
2018-03-26T11:27:37.146Z,64.91
2018-03-26T11:28:37.028Z,66.18
2018-03-26T11:29:37.337Z,64.56
2018-03-26T11:30:37.031Z,64.75
2018-03-26T11:31:37.114Z,63.89
2018-03-26T11:32:36.996Z,66.43
2018-03-26T11:33:36.981Z,69.76
2018-03-26T11:34:36.983Z,69.54
2018-03-26T11:35:37.004Z,69.35
2018-03-26T11:36:37.711Z,70.14
2018-03-26T11:37:37.788Z,71.09
2018-03-26T11:38:37.213Z,72.67
2018-03-26T11:39:38.970Z,73.97
2018-03-26T11:40:37.116Z,75.96
2018-03-26T11:41:36.918Z,76.63
2018-03-26T11:42:36.918Z,76.63
2018-03-26T11:43:37.242Z,76.82
2018-03-26T11:44:37.004Z,75.68
2018-03-26T11:45:36.894Z,76.63
2018-03-26T11:46:36.878Z,76.92
2018-03-26T11:47:36.876Z,77.64
2018-03-26T11:48:36.936Z,78.97
2018-03-26T11:49:36.956Z,79.25
2018-03-26T11:50:36.832Z,79.16
2018-03-26T11:51:36.825Z,78.82
2018-03-26T11:52:36.821Z,78.11
2018-03-26T11:53:36.908Z,78.36
2018-03-26T11:54:37.110Z,79.03
2018-03-26T11:55:36.837Z,79.79
2018-03-26T11:56:36.759Z,80.16
2018-03-26T11:57:36.766Z,79.54
2018-03-26T11:58:36.791Z,79.25
2018-03-26T11:59:36.746Z,78.78
2018-03-26T12:00:37.020Z,78.97
2018-03-26T12:01:36.717Z,78.88
2018-03-26T12:02:36.730Z,79.16
2018-03-26T12:03:36.684Z,79.03
2018-03-26T12:04:36.722Z,79.12
2018-03-26T12:05:36.658Z,78.97
2018-03-26T12:06:36.938Z,79.50
2018-03-26T12:07:36.624Z,79.88
2018-03-26T12:08:36.640Z,79.60
2018-03-26T12:09:36.619Z,79.12
2018-03-26T12:10:36.656Z,79.54
2018-03-26T12:11:36.580Z,78.88
2018-03-26T12:12:36.658Z,79.12
2018-03-26T12:13:36.852Z,79.88
2018-03-26T12:14:36.600Z,79.92
2018-03-26T12:15:36.579Z,78.30
2018-03-26T12:16:36.513Z,78.11
2018-03-26T12:17:36.490Z,78.78
2018-03-26T12:18:36.481Z,79.88
2018-03-26T12:19:36.466Z,80.88
2018-03-26T12:20:36.758Z,82.59
2018-03-26T12:21:36.535Z,82.31
2018-03-26T12:22:36.421Z,81.87
2018-03-26T12:23:36.415Z,81.74
2018-03-26T12:24:37.105Z,81.78
2018-03-26T12:25:36.537Z,79.50
2018-03-26T12:26:36.674Z,78.93
2018-03-26T12:27:36.355Z,78.83
2018-03-26T12:28:36.339Z,79.79
2018-03-26T12:29:36.324Z,80.16
2018-03-26T12:30:39.004Z,81.07
2018-03-26T12:31:36.288Z,81.36
2018-03-26T12:32:36.573Z,81.40
2018-03-26T12:33:36.346Z,80.55
2018-03-26T12:34:36.430Z,80.16
2018-03-26T12:35:36.234Z,78.88
2018-03-26T12:36:36.320Z,79.41
2018-03-26T12:37:36.211Z,79.12
2018-03-26T12:38:36.490Z,78.74
2018-03-26T12:39:36.172Z,79.12
2018-03-26T12:41:36.189Z,79.50
2018-03-26T12:42:36.127Z,79.06
2018-03-26T12:43:36.205Z,79.92
2018-03-26T12:44:36.403Z,79.88
2018-03-26T12:45:36.083Z,80.21
2018-03-26T12:46:36.174Z,78.69
2018-03-26T12:47:36.086Z,77.83
2018-03-26T12:48:36.040Z,78.40
2018-03-26T12:49:36.084Z,78.11
2018-03-26T12:50:36.328Z,78.21
2018-03-26T12:51:36.009Z,77.39
2018-03-26T12:52:35.991Z,76.63
2018-03-26T12:53:35.979Z,77.01
2018-03-26T12:54:35.950Z,77.83
2018-03-26T12:55:35.979Z,78.83
2018-03-26T12:56:36.224Z,79.92
2018-03-26T12:57:35.900Z,78.83
2018-03-26T12:58:35.959Z,78.93
2018-03-26T12:59:38.343Z,79.03
2018-03-26T13:00:35.864Z,80.07
2018-03-26T13:01:35.850Z,80.07
2018-03-26T13:02:36.142Z,80.83
2018-03-26T13:03:35.821Z,80.83